Main page
METAR-TAF:

METAR-TAF

Airports :

Changchun Longjia International Airport

Changchun, China

latitude: 43-54N, longitude: 125-13E, elevation: 238 m

Current weather observation

The report was made 1 hour and 9 minutes ago, at 17:00 UTC
Wind 4 kt from the Southwest
Temperature 1°C
Humidity 59%
Pressure 1023 hPa
Visibility 10 km or more
no clouds below 1500 m and no cumulonimbus

METAR: ZYCC 211700Z 23002MPS CAVOK 01/M06 Q1023 NOSIG

Time: 02:09 (18:09 UTC)

Forecast

The report was made 3 hours and 2 minutes ago, at 15:07 UTC
Forecast valid from 21 at 18 UTC to 22 at 18 UTC
Wind 8 kt from the West
Visibility: 6000 m

TAF: ZYCC 211507Z 2118/2218 27004MPS 6000 NSC TX11/2206Z TNM03/2121Z

Weather observations and forecasts of more than 4000 airports (METAR and TAF reports).

The available stations are represented by yellow and red dots on the map.

Hover mouse over dot to see the name of the station.

Then click to see weather observations and forecasts.

To change the map : click on the green buttons with a black cross to zoom in, on the green button with a dash to zoom out, or on the green arrows for adjacent maps.


METAR-TAF: